createdAt,value
2018-12-09T00:01:46.033Z,1.00
2018-12-09T00:04:19.542Z,0.97
2018-12-09T00:06:51.902Z,0.90
2018-12-09T00:09:22.526Z,1.63
2018-12-09T00:11:53.570Z,0.90
2018-12-09T00:14:24.201Z,0.90
2018-12-09T00:16:54.786Z,1.00
2018-12-09T00:19:25.698Z,1.03
2018-12-09T00:21:56.397Z,0.80
2018-12-09T00:24:27.266Z,1.40
2018-12-09T00:26:57.875Z,1.00
2018-12-09T00:29:29.130Z,0.80
2018-12-09T00:31:59.689Z,3.20
2018-12-09T00:34:30.399Z,1.20
2018-12-09T00:37:01.029Z,1.00
2018-12-09T00:39:31.653Z,1.77
2018-12-09T00:42:02.261Z,1.20
2018-12-09T00:44:32.902Z,1.03
2018-12-09T00:47:03.467Z,1.10
2018-12-09T00:49:34.350Z,1.33
2018-12-09T00:52:05.221Z,3.23
2018-12-09T00:54:36.051Z,1.47
2018-12-09T00:57:06.655Z,1.90
2018-12-09T00:59:37.914Z,1.70
2018-12-09T01:02:10.856Z,1.97
2018-12-09T01:04:41.542Z,4.83
2018-12-09T01:07:12.569Z,2.80
2018-12-09T01:09:43.594Z,2.70
2018-12-09T01:12:14.218Z,3.03
2018-12-09T01:14:44.851Z,2.30
2018-12-09T01:17:15.465Z,2.47
2018-12-09T01:19:46.218Z,3.20
2018-12-09T01:22:17.035Z,3.50
2018-12-09T01:24:47.630Z,5.27
2018-12-09T01:27:18.266Z,3.10
2018-12-09T01:29:49.580Z,2.70
2018-12-09T01:32:21.590Z,2.10
2018-12-09T01:34:52.258Z,4.70
2018-12-09T01:37:23.218Z,2.80
2018-12-09T01:39:54.274Z,2.60
2018-12-09T01:42:25.178Z,3.93
2018-12-09T01:44:55.850Z,3.20
2018-12-09T01:47:26.668Z,3.13
2018-12-09T01:49:57.258Z,4.80
2018-12-09T01:52:28.128Z,2.83
2018-12-09T01:54:59.479Z,3.90
2018-12-09T01:57:30.116Z,3.77
2018-12-09T02:00:00.917Z,4.27
2018-12-09T02:02:31.570Z,2.97
2018-12-09T02:05:02.190Z,5.00
2018-12-09T02:07:33.145Z,3.50
2018-12-09T02:10:03.728Z,3.83
2018-12-09T02:12:34.414Z,3.10
2018-12-09T02:15:06.242Z,4.93
2018-12-09T02:17:36.882Z,5.67
2018-12-09T02:20:08.450Z,5.53
2018-12-09T02:22:39.769Z,6.07
2018-12-09T02:25:11.457Z,6.83
2018-12-09T02:27:42.675Z,3.27
2018-12-09T02:30:14.252Z,4.50
2018-12-09T02:32:45.071Z,7.27
2018-12-09T02:35:15.933Z,3.77
2018-12-09T02:37:47.018Z,4.30
2018-12-09T02:40:17.994Z,5.23
2018-12-09T02:42:48.809Z,4.17
2018-12-09T02:45:19.413Z,8.27
2018-12-09T02:47:50.078Z,4.83
2018-12-09T02:50:21.090Z,6.80
2018-12-09T02:52:52.656Z,5.87
2018-12-09T02:55:23.478Z,4.43
2018-12-09T02:57:54.346Z,5.37
2018-12-09T03:00:25.514Z,4.93
2018-12-09T03:02:56.421Z,6.50
2018-12-09T03:05:27.478Z,8.23
2018-12-09T03:07:58.102Z,6.20
2018-12-09T03:10:28.737Z,10.10
2018-12-09T03:12:59.352Z,5.80
2018-12-09T03:15:29.917Z,4.50
2018-12-09T03:18:00.878Z,5.87
2018-12-09T03:20:31.444Z,7.80
2018-12-09T03:23:02.128Z,5.57
2018-12-09T03:25:33.007Z,6.27
2018-12-09T03:28:03.815Z,4.23
2018-12-09T03:30:34.465Z,2.97
2018-12-09T03:33:05.745Z,5.60
2018-12-09T03:35:36.553Z,2.37
2018-12-09T03:38:07.243Z,2.80
2018-12-09T03:40:38.446Z,6.00
2018-12-09T03:43:09.024Z,4.83
2018-12-09T03:45:39.857Z,5.37
2018-12-09T03:48:10.766Z,4.87
2018-12-09T03:50:41.375Z,5.00
2018-12-09T03:53:12.229Z,5.37
2018-12-09T03:55:43.034Z,4.27
2018-12-09T03:58:13.682Z,4.97
2018-12-09T04:00:44.517Z,4.90
2018-12-09T04:03:15.094Z,5.23
2018-12-09T04:05:46.000Z,4.73
2018-12-09T04:08:17.279Z,7.37
2018-12-09T04:10:47.870Z,5.67
2018-12-09T04:13:18.485Z,6.60
2018-12-09T04:15:50.163Z,8.90
2018-12-09T04:18:22.719Z,7.53
2018-12-09T04:20:53.664Z,8.00
2018-12-09T04:23:24.476Z,9.47
2018-12-09T04:25:55.292Z,9.77
2018-12-09T04:28:25.952Z,10.53
2018-12-09T04:30:56.542Z,6.37
2018-12-09T04:33:27.476Z,11.93
2018-12-09T04:35:58.462Z,11.27
2018-12-09T04:38:29.289Z,12.83
2018-12-09T04:41:06.915Z,12.73
2018-12-09T04:43:37.722Z,9.20
2018-12-09T04:46:09.382Z,14.07
2018-12-09T04:48:40.217Z,7.70
2018-12-09T04:51:10.877Z,11.50
2018-12-09T04:53:41.784Z,16.23
2018-12-09T04:56:12.813Z,11.23
2018-12-09T04:58:59.179Z,12.23
2018-12-09T05:01:36.293Z,11.60
2018-12-09T05:04:07.157Z,10.07
2018-12-09T05:06:38.077Z,6.57
2018-12-09T05:09:09.425Z,6.47
2018-12-09T05:11:40.269Z,10.10
2018-12-09T05:14:10.909Z,7.60
2018-12-09T05:16:41.941Z,8.07
2018-12-09T05:19:12.511Z,9.60
2018-12-09T05:21:43.602Z,8.83
2018-12-09T05:24:14.325Z,7.17
2018-12-09T05:26:44.962Z,8.67
2018-12-09T05:29:15.609Z,12.10
2018-12-09T05:31:46.220Z,7.47
2018-12-09T05:34:17.273Z,6.70
2018-12-09T05:36:48.022Z,6.67
2018-12-09T05:39:18.841Z,8.13
2018-12-09T05:41:49.463Z,8.40
2018-12-09T05:44:20.679Z,5.47
2018-12-09T05:46:51.286Z,4.07
2018-12-09T05:49:22.780Z,5.77
2018-12-09T05:51:53.522Z,6.87
2018-12-09T05:54:24.721Z,10.27
2018-12-09T05:56:55.297Z,10.20
2018-12-09T05:59:25.854Z,5.83
2018-12-09T06:02:12.190Z,8.40
2018-12-09T06:04:42.753Z,8.10
2018-12-09T06:07:13.322Z,7.30
2018-12-09T06:09:43.921Z,9.60
2018-12-09T06:12:14.767Z,6.97
2018-12-09T06:14:45.374Z,8.00
2018-12-09T06:17:15.938Z,4.00
2018-12-09T06:19:46.733Z,15.03
2018-12-09T06:22:17.626Z,12.43
2018-12-09T06:24:48.531Z,7.20
2018-12-09T06:27:19.106Z,13.03
2018-12-09T06:29:49.669Z,7.33
2018-12-09T06:32:20.324Z,18.27
2018-12-09T06:34:50.933Z,8.80
2018-12-09T06:37:22.210Z,13.40
2018-12-09T06:39:53.135Z,5.03
2018-12-09T06:42:24.005Z,4.60
2018-12-09T06:44:56.868Z,2.63
2018-12-09T06:47:27.561Z,1.83
2018-12-09T06:49:59.149Z,3.07
2018-12-09T06:52:29.888Z,2.20
2018-12-09T06:55:00.970Z,2.40
2018-12-09T06:57:31.830Z,1.63
2018-12-09T07:00:06.180Z,1.77
2018-12-09T07:02:37.090Z,4.27
2018-12-09T07:05:10.031Z,2.37
2018-12-09T07:07:40.846Z,4.90
2018-12-09T07:10:12.893Z,2.03
2018-12-09T07:12:43.696Z,4.90
2018-12-09T07:15:15.430Z,6.53
2018-12-09T07:17:46.329Z,4.97
2018-12-09T07:20:17.471Z,5.70
2018-12-09T07:22:48.314Z,6.57
2018-12-09T07:25:19.418Z,6.47
2018-12-09T07:27:50.198Z,4.17
2018-12-09T07:30:20.895Z,6.90
2018-12-09T07:32:51.689Z,6.40
2018-12-09T07:35:22.257Z,11.80
2018-12-09T07:37:53.079Z,6.00
2018-12-09T07:40:23.889Z,5.97
2018-12-09T07:42:54.473Z,8.00
2018-12-09T07:45:25.270Z,6.53
2018-12-09T07:47:55.866Z,4.60
2018-12-09T07:50:26.797Z,5.73
2018-12-09T07:52:57.413Z,6.90
2018-12-09T07:55:28.354Z,4.67
2018-12-09T07:57:58.984Z,6.33
2018-12-09T08:00:29.657Z,6.93
2018-12-09T08:03:00.267Z,5.80
2018-12-09T08:05:31.193Z,3.63
2018-12-09T08:08:01.790Z,7.83
2018-12-09T08:10:32.438Z,6.60
2018-12-09T08:13:03.054Z,6.50
2018-12-09T08:15:33.807Z,12.30
2018-12-09T08:18:04.442Z,9.33
2018-12-09T08:20:35.630Z,10.10
2018-12-09T08:23:06.202Z,7.37
2018-12-09T08:25:36.933Z,6.80
2018-12-09T08:28:07.601Z,8.30
2018-12-09T08:30:38.207Z,8.30
2018-12-09T08:33:08.819Z,5.90
2018-12-09T08:35:39.463Z,7.57
2018-12-09T08:38:10.302Z,9.17
2018-12-09T08:40:40.946Z,9.53
2018-12-09T08:43:11.508Z,11.57
2018-12-09T08:45:42.093Z,7.23
2018-12-09T08:48:12.649Z,12.67
2018-12-09T08:50:43.434Z,10.30
2018-12-09T08:53:14.149Z,9.57
2018-12-09T08:55:44.737Z,10.30
2018-12-09T08:58:15.538Z,10.70
2018-12-09T09:00:46.157Z,8.13
2018-12-09T09:03:16.801Z,9.37
2018-12-09T09:05:47.418Z,7.03
2018-12-09T09:08:18.066Z,10.30
2018-12-09T09:10:48.638Z,12.97
2018-12-09T09:13:19.749Z,11.20
2018-12-09T09:15:50.417Z,9.27
2018-12-09T09:18:21.168Z,11.97
2018-12-09T09:20:51.746Z,12.90
2018-12-09T09:23:22.643Z,9.40
2018-12-09T09:25:53.378Z,11.03
2018-12-09T09:28:24.359Z,11.40
2018-12-09T09:30:55.802Z,12.33
2018-12-09T09:33:26.422Z,9.13
2018-12-09T09:35:57.034Z,16.60
2018-12-09T09:38:27.719Z,13.83
2018-12-09T09:40:58.256Z,16.93
2018-12-09T09:43:28.863Z,12.40
2018-12-09T09:45:59.486Z,12.67
2018-12-09T09:48:30.131Z,14.33
2018-12-09T09:51:00.727Z,15.10
2018-12-09T09:53:31.401Z,9.60
2018-12-09T09:56:02.142Z,10.27
2018-12-09T09:58:32.776Z,9.00
2018-12-09T10:01:03.912Z,13.30
2018-12-09T10:03:34.622Z,14.13
2018-12-09T10:06:05.662Z,9.63
2018-12-09T10:08:36.254Z,8.53
2018-12-09T10:11:06.897Z,13.50
2018-12-09T10:13:38.179Z,11.30
2018-12-09T10:16:09.585Z,8.20
2018-12-09T10:18:40.255Z,13.27
2018-12-09T10:21:10.889Z,15.67
2018-12-09T10:23:41.593Z,7.87
2018-12-09T10:26:12.221Z,10.07
2018-12-09T10:28:43.177Z,14.27
2018-12-09T10:31:14.822Z,13.07
2018-12-09T10:33:45.538Z,14.50
2018-12-09T10:36:16.281Z,10.00
2018-12-09T10:38:47.145Z,9.20
2018-12-09T10:41:17.737Z,11.03
2018-12-09T10:43:48.416Z,15.03
2018-12-09T10:46:19.131Z,11.23
2018-12-09T10:48:49.959Z,14.03
2018-12-09T10:51:20.536Z,9.00
2018-12-09T10:53:51.132Z,9.10
2018-12-09T10:56:22.005Z,8.00
2018-12-09T10:58:52.668Z,11.60
2018-12-09T11:04:22.416Z,12.30
2018-12-09T11:06:53.151Z,13.13
2018-12-09T11:09:23.746Z,12.00
2018-12-09T11:11:54.343Z,13.20
2018-12-09T11:14:25.014Z,9.17
2018-12-09T11:16:55.618Z,6.47
2018-12-09T11:19:26.446Z,7.93
2018-12-09T11:21:57.053Z,5.10
2018-12-09T11:24:28.775Z,9.13
2018-12-09T11:26:59.446Z,6.33
2018-12-09T11:29:30.141Z,5.50
2018-12-09T11:32:00.742Z,5.83
2018-12-09T11:34:31.493Z,7.13
2018-12-09T11:37:03.158Z,8.57
2018-12-09T11:39:33.841Z,8.40
2018-12-09T11:42:04.417Z,9.83
2018-12-09T11:44:35.709Z,7.30
2018-12-09T11:47:06.531Z,9.60
2018-12-09T11:49:37.123Z,10.43
2018-12-09T11:52:08.269Z,9.90
2018-12-09T11:54:38.894Z,7.20
2018-12-09T11:57:09.509Z,10.00
2018-12-09T11:59:40.183Z,5.83
2018-12-09T12:02:10.834Z,5.97
2018-12-09T12:04:41.685Z,8.10
2018-12-09T12:07:12.441Z,6.03
2018-12-09T12:09:43.818Z,7.73
2018-12-09T12:12:14.586Z,7.47
2018-12-09T12:14:45.181Z,5.20
2018-12-09T12:17:16.182Z,5.60
2018-12-09T12:19:46.823Z,8.90
2018-12-09T12:22:17.400Z,6.80
2018-12-09T12:24:48.108Z,7.10
2018-12-09T12:27:18.749Z,7.77
2018-12-09T12:29:50.004Z,6.20
2018-12-09T12:32:20.599Z,9.87
2018-12-09T12:34:51.337Z,7.70
2018-12-09T12:37:21.995Z,9.80
2018-12-09T12:39:52.559Z,8.70
2018-12-09T12:42:23.186Z,6.90
2018-12-09T12:44:53.902Z,7.97
2018-12-09T12:47:24.517Z,6.00
2018-12-09T12:49:55.155Z,9.20
2018-12-09T12:52:26.328Z,4.93
2018-12-09T12:54:57.031Z,7.37
2018-12-09T12:57:27.687Z,8.23
2018-12-09T12:59:58.440Z,8.43
2018-12-09T13:02:29.006Z,6.80
2018-12-09T13:04:59.689Z,5.00
2018-12-09T13:07:30.472Z,6.83
2018-12-09T13:10:01.127Z,6.10
2018-12-09T13:12:32.879Z,6.27
2018-12-09T13:15:04.446Z,5.00
2018-12-09T13:17:35.126Z,3.53
2018-12-09T13:20:08.155Z,7.03
2018-12-09T13:22:38.773Z,5.40
2018-12-09T13:25:09.914Z,7.63
2018-12-09T13:27:41.167Z,9.67
2018-12-09T13:30:12.792Z,6.07
2018-12-09T13:32:44.183Z,6.40
2018-12-09T13:35:15.219Z,6.17
2018-12-09T13:37:46.683Z,3.93
2018-12-09T13:40:18.411Z,5.83
2018-12-09T13:42:49.559Z,6.30
2018-12-09T13:45:20.130Z,5.93
2018-12-09T13:47:51.380Z,2.90
2018-12-09T13:50:22.043Z,4.20
2018-12-09T13:52:52.718Z,4.70
2018-12-09T13:55:23.379Z,4.57
2018-12-09T13:57:54.182Z,4.10
2018-12-09T14:00:25.102Z,9.63
2018-12-09T14:02:55.670Z,5.20
2018-12-09T14:08:14.835Z,7.93
2018-12-09T14:10:45.635Z,3.77
2018-12-09T14:13:16.478Z,6.97
2018-12-09T14:15:47.121Z,4.80
2018-12-09T14:18:17.726Z,2.43
2018-12-09T14:20:48.350Z,3.23
2018-12-09T14:23:19.361Z,4.30
2018-12-09T14:25:50.009Z,2.10
2018-12-09T14:28:20.673Z,2.63
2018-12-09T14:30:51.302Z,2.67
2018-12-09T14:33:21.943Z,2.20
2018-12-09T14:35:52.581Z,2.67
2018-12-09T14:38:23.413Z,2.30
2018-12-09T14:40:54.549Z,1.60
2018-12-09T14:43:25.165Z,4.13
2018-12-09T14:45:55.755Z,3.10
2018-12-09T14:48:26.667Z,3.83
2018-12-09T14:50:57.481Z,2.00
2018-12-09T14:53:28.078Z,4.47
2018-12-09T14:55:58.910Z,3.07
2018-12-09T14:58:29.539Z,3.47
2018-12-09T15:01:00.222Z,5.77
2018-12-09T15:03:30.843Z,6.63
2018-12-09T15:06:01.459Z,4.23
2018-12-09T15:08:32.098Z,3.87
2018-12-09T15:11:03.213Z,3.93
2018-12-09T15:13:34.280Z,5.60
2018-12-09T15:16:04.942Z,5.00
2018-12-09T15:18:35.882Z,5.93
2018-12-09T15:21:06.579Z,2.83
2018-12-09T15:23:37.138Z,4.00
2018-12-09T15:26:08.051Z,5.13
2018-12-09T15:28:39.217Z,4.33
2018-12-09T15:31:09.815Z,5.40
2018-12-09T15:33:40.560Z,5.23
2018-12-09T15:36:11.151Z,5.27
2018-12-09T15:38:41.969Z,3.83
2018-12-09T15:41:12.565Z,4.07
2018-12-09T15:43:43.218Z,2.97
2018-12-09T15:46:14.198Z,2.13
2018-12-09T15:48:51.600Z,4.80
2018-12-09T15:51:23.354Z,2.20
2018-12-09T15:53:55.789Z,3.93
2018-12-09T15:56:26.460Z,2.97
2018-12-09T15:58:57.221Z,3.13
2018-12-09T16:01:27.834Z,2.20
2018-12-09T16:03:59.015Z,4.23
2018-12-09T16:06:29.702Z,2.53
2018-12-09T16:09:01.494Z,3.33
2018-12-09T16:11:33.746Z,2.70
2018-12-09T16:14:04.998Z,3.10
2018-12-09T16:16:35.806Z,3.07
2018-12-09T16:19:06.452Z,4.00
2018-12-09T16:21:37.069Z,4.77
2018-12-09T16:24:08.153Z,2.90
2018-12-09T16:26:38.728Z,3.00
2018-12-09T16:29:09.513Z,4.23
2018-12-09T16:31:40.173Z,5.10
2018-12-09T16:34:10.788Z,2.83
2018-12-09T16:36:41.365Z,2.47
2018-12-09T16:39:12.465Z,3.03
2018-12-09T16:41:43.214Z,4.37
2018-12-09T16:44:13.882Z,3.30
2018-12-09T16:46:44.594Z,3.00
2018-12-09T16:49:15.242Z,2.53
2018-12-09T16:51:46.063Z,2.20
2018-12-09T16:54:17.506Z,4.93
2018-12-09T16:56:48.241Z,5.07
2018-12-09T16:59:19.104Z,2.70
2018-12-09T17:01:49.725Z,3.20
2018-12-09T17:04:20.391Z,4.00
2018-12-09T17:06:50.989Z,2.80
2018-12-09T17:09:21.803Z,3.10
2018-12-09T17:11:52.434Z,2.77
2018-12-09T17:14:23.022Z,4.03
2018-12-09T17:16:53.733Z,3.17
2018-12-09T17:19:25.594Z,5.00
2018-12-09T17:21:56.441Z,3.23
2018-12-09T17:24:27.058Z,4.63
2018-12-09T17:26:57.715Z,5.30
2018-12-09T17:29:28.462Z,5.17
2018-12-09T17:31:59.124Z,8.10
2018-12-09T17:34:29.729Z,7.53
2018-12-09T17:37:00.329Z,8.83
2018-12-09T17:39:30.942Z,5.40
2018-12-09T17:42:01.548Z,7.37
2018-12-09T17:44:32.407Z,6.53
2018-12-09T17:47:03.348Z,7.90
2018-12-09T17:49:33.969Z,4.63
2018-12-09T17:52:04.686Z,4.87
2018-12-09T17:54:38.249Z,4.33
2018-12-09T17:57:09.306Z,6.83
2018-12-09T17:59:39.925Z,6.57
2018-12-09T18:02:10.551Z,5.60
2018-12-09T18:04:41.249Z,4.00
2018-12-09T18:07:11.825Z,5.10
2018-12-09T18:09:42.494Z,6.00
2018-12-09T18:12:13.107Z,4.33
2018-12-09T18:14:43.685Z,4.10
2018-12-09T18:17:14.381Z,7.17
2018-12-09T18:19:44.990Z,6.90
2018-12-09T18:22:15.573Z,6.20
2018-12-09T18:24:46.189Z,5.10
2018-12-09T18:27:16.797Z,8.87
2018-12-09T18:29:47.439Z,7.50
2018-12-09T18:32:18.486Z,7.10
2018-12-09T18:34:49.614Z,7.00
2018-12-09T18:37:20.674Z,5.43
2018-12-09T18:39:51.833Z,4.20
2018-12-09T18:42:22.390Z,5.33
2018-12-09T18:44:53.026Z,4.07
2018-12-09T18:47:23.598Z,7.77
2018-12-09T18:49:54.435Z,5.10
2018-12-09T18:52:25.026Z,4.43
2018-12-09T18:54:56.006Z,6.30
2018-12-09T18:57:26.590Z,3.60
2018-12-09T18:59:57.578Z,4.63
2018-12-09T19:02:28.198Z,4.10
2018-12-09T19:04:59.718Z,4.37
2018-12-09T19:07:30.758Z,3.87
2018-12-09T19:10:02.334Z,2.87
2018-12-09T19:12:34.258Z,3.60
2018-12-09T19:15:05.974Z,4.60
2018-12-09T19:17:36.561Z,4.07
2018-12-09T19:20:08.019Z,2.67
2018-12-09T19:22:39.202Z,1.87
2018-12-09T19:25:09.957Z,2.60
2018-12-09T19:27:40.642Z,2.23
2018-12-09T19:30:11.246Z,4.73
2018-12-09T19:32:41.873Z,3.40
2018-12-09T19:35:12.537Z,3.37
2018-12-09T19:37:43.200Z,3.77
2018-12-09T19:40:14.268Z,3.17
2018-12-09T19:42:45.057Z,4.43
2018-12-09T19:45:15.718Z,4.50
2018-12-09T19:47:46.300Z,2.60
2018-12-09T19:50:17.458Z,7.10
2018-12-09T19:52:48.148Z,7.47
2018-12-09T19:55:18.790Z,5.83
2018-12-09T19:57:49.863Z,4.03
2018-12-09T20:00:20.491Z,4.83
2018-12-09T20:02:51.087Z,4.93
2018-12-09T20:05:21.670Z,4.60
2018-12-09T20:07:52.384Z,4.47
2018-12-09T20:10:22.958Z,6.80
2018-12-09T20:12:53.649Z,4.73
2018-12-09T20:15:24.393Z,3.60
2018-12-09T20:17:55.036Z,5.43
2018-12-09T20:20:25.651Z,3.13
2018-12-09T20:22:56.284Z,6.07
2018-12-09T20:25:26.990Z,6.47
2018-12-09T20:27:57.602Z,3.70
2018-12-09T20:30:28.254Z,4.30
2018-12-09T20:32:58.880Z,5.20
2018-12-09T20:35:29.544Z,3.50
2018-12-09T20:38:00.140Z,5.07
2018-12-09T20:40:30.774Z,2.93
2018-12-09T20:43:01.430Z,3.77
2018-12-09T20:45:32.001Z,3.60
2018-12-09T20:48:02.901Z,3.47
2018-12-09T20:50:33.570Z,3.23
2018-12-09T20:53:05.642Z,5.27
2018-12-09T20:55:36.246Z,3.77
2018-12-09T20:58:07.102Z,4.27
2018-12-09T21:00:38.142Z,6.10
2018-12-09T21:03:08.991Z,5.20
2018-12-09T21:05:39.642Z,7.63
2018-12-09T21:08:10.291Z,6.10
2018-12-09T21:10:41.713Z,9.90
2018-12-09T21:13:19.034Z,6.73
2018-12-09T21:15:51.381Z,7.13
2018-12-09T21:18:22.335Z,5.97
2018-12-09T21:20:53.478Z,5.87
2018-12-09T21:23:24.416Z,5.23
2018-12-09T21:25:55.127Z,4.93
2018-12-09T21:28:25.981Z,6.20
2018-12-09T21:30:56.569Z,5.00
2018-12-09T21:33:27.254Z,5.20
2018-12-09T21:35:57.933Z,5.00
2018-12-09T21:38:28.630Z,5.43
2018-12-09T21:40:59.329Z,5.37
2018-12-09T21:43:30.175Z,4.50
2018-12-09T21:46:00.782Z,6.90
2018-12-09T21:48:31.553Z,7.07
2018-12-09T21:51:02.139Z,6.10
2018-12-09T21:53:32.818Z,5.07
2018-12-09T21:56:03.405Z,8.30
2018-12-09T21:58:34.117Z,4.40
2018-12-09T22:01:05.408Z,5.57
2018-12-09T22:03:36.146Z,2.97
2018-12-09T22:06:07.820Z,6.20
2018-12-09T22:08:38.571Z,5.10
2018-12-09T22:11:09.141Z,6.27
2018-12-09T22:13:40.713Z,6.20
2018-12-09T22:16:11.299Z,5.47
2018-12-09T22:18:42.829Z,4.53
2018-12-09T22:21:13.414Z,5.30
2018-12-09T22:23:44.062Z,8.10
2018-12-09T22:26:14.683Z,5.60
2018-12-09T22:28:45.322Z,6.10
2018-12-09T22:31:16.050Z,4.77
2018-12-09T22:33:46.942Z,3.70
2018-12-09T22:36:17.610Z,5.23
2018-12-09T22:38:48.512Z,4.97
2018-12-09T22:41:19.082Z,4.30
2018-12-09T22:43:50.635Z,10.43
2018-12-09T22:46:21.278Z,6.10
2018-12-09T22:48:52.639Z,5.07
2018-12-09T22:51:23.250Z,3.93
2018-12-09T22:53:54.388Z,5.53
2018-12-09T22:56:25.497Z,5.20
2018-12-09T22:58:56.242Z,5.80
2018-12-09T23:01:27.262Z,3.43
2018-12-09T23:03:58.270Z,4.37
2018-12-09T23:06:28.855Z,5.43
2018-12-09T23:08:59.494Z,3.90
2018-12-09T23:11:30.113Z,4.50
2018-12-09T23:14:00.759Z,5.20
2018-12-09T23:16:31.382Z,8.20
2018-12-09T23:19:01.994Z,4.80
2018-12-09T23:21:32.597Z,5.00
2018-12-09T23:24:03.190Z,7.80
2018-12-09T23:26:33.761Z,5.90
2018-12-09T23:29:05.270Z,3.97
2018-12-09T23:31:35.826Z,4.63
2018-12-09T23:34:06.417Z,4.23
2018-12-09T23:36:37.090Z,6.90
2018-12-09T23:39:08.335Z,5.23
2018-12-09T23:41:38.898Z,5.50
2018-12-09T23:44:10.145Z,4.17
2018-12-09T23:46:41.043Z,3.60
2018-12-09T23:49:11.650Z,5.13
2018-12-09T23:51:42.193Z,4.00
2018-12-09T23:54:13.010Z,5.13
2018-12-09T23:56:43.574Z,3.93
2018-12-09T23:59:14.129Z,2.87
